createdAt,value
2024-03-24T00:01:17.022Z,1002.76
2024-03-24T00:03:02.050Z,1002.77
2024-03-24T00:04:47.092Z,1002.71
2024-03-24T00:06:32.097Z,1002.9
2024-03-24T00:08:17.071Z,1002.81
2024-03-24T00:10:02.083Z,1002.81
2024-03-24T00:11:47.030Z,1002.79
2024-03-24T00:13:32.055Z,1002.74
2024-03-24T00:15:17.082Z,1002.74
2024-03-24T00:17:02.062Z,1002.83
2024-03-24T00:18:47.043Z,1002.81
2024-03-24T00:20:32.062Z,1002.75
2024-03-24T00:22:17.074Z,1002.8
2024-03-24T00:24:02.056Z,1002.81
2024-03-24T00:25:47.084Z,1002.74
2024-03-24T00:27:32.046Z,1002.74
2024-03-24T00:29:17.059Z,1002.69
2024-03-24T00:31:02.095Z,1002.76
2024-03-24T00:32:47.056Z,1002.61
2024-03-24T00:34:32.079Z,1002.68
2024-03-24T00:36:17.055Z,1002.63
2024-03-24T00:38:02.109Z,1002.62
2024-03-24T00:39:47.080Z,1002.56
2024-03-24T00:41:32.093Z,1002.53
2024-03-24T00:43:17.388Z,1002.53
2024-03-24T00:45:02.078Z,1002.56
2024-03-24T00:46:47.078Z,1002.51
2024-03-24T00:48:32.113Z,1002.41
2024-03-24T00:50:17.098Z,1002.45
2024-03-24T00:52:02.086Z,1002.45
2024-03-24T00:53:47.122Z,1002.47
2024-03-24T00:55:32.079Z,1002.49
2024-03-24T00:57:17.102Z,1002.39
2024-03-24T00:59:02.106Z,1002.38
2024-03-24T01:00:47.125Z,1002.3
2024-03-24T01:02:32.131Z,1002.48
2024-03-24T01:04:17.121Z,1002.48
2024-03-24T01:06:02.112Z,1002.38
2024-03-24T01:07:47.131Z,1002.46
2024-03-24T01:09:32.182Z,1002.31
2024-03-24T01:11:17.149Z,1002.34
2024-03-24T01:13:02.153Z,1002.24
2024-03-24T01:14:47.144Z,1002.3
2024-03-24T01:16:32.132Z,1002.24
2024-03-24T01:18:17.155Z,1002.15
2024-03-24T01:20:02.146Z,1002.1
2024-03-24T01:21:47.181Z,1002.24
2024-03-24T01:23:32.153Z,1002.06
2024-03-24T01:25:17.136Z,1002.1
2024-03-24T01:27:02.144Z,1002.04
2024-03-24T01:28:47.177Z,1001.97
2024-03-24T01:30:32.157Z,1001.86
2024-03-24T01:32:17.464Z,1001.85
2024-03-24T01:34:02.159Z,1001.97
2024-03-24T01:35:47.460Z,1001.97
2024-03-24T01:37:32.273Z,1001.93
2024-03-24T01:39:17.172Z,1001.79
2024-03-24T01:41:02.156Z,1001.89
2024-03-24T01:42:47.138Z,1001.91
2024-03-24T01:44:32.174Z,1001.85
2024-03-24T01:46:17.166Z,1001.72
2024-03-24T01:48:02.205Z,1001.81
2024-03-24T01:49:47.191Z,1001.86
2024-03-24T01:51:32.148Z,1001.72
2024-03-24T01:53:17.191Z,1001.72
2024-03-24T01:55:02.183Z,1001.66
2024-03-24T01:56:47.218Z,1001.61
2024-03-24T01:58:32.184Z,1001.56
2024-03-24T02:00:17.206Z,1001.66
2024-03-24T02:02:02.157Z,1001.56
2024-03-24T02:03:47.173Z,1001.47
2024-03-24T02:05:32.212Z,1001.54
2024-03-24T02:07:17.176Z,1001.52
2024-03-24T02:09:02.180Z,1001.54
2024-03-24T02:10:47.201Z,1001.43
2024-03-24T02:12:32.216Z,1001.43
2024-03-24T02:14:17.187Z,1001.43
2024-03-24T02:16:02.208Z,1001.43
2024-03-24T02:17:50.094Z,1001.33
2024-03-24T02:19:32.246Z,1001.26
2024-03-24T02:21:17.199Z,1001.14
2024-03-24T02:23:02.211Z,1001.17
2024-03-24T02:24:47.200Z,1001.25
2024-03-24T02:26:32.251Z,1001.2
2024-03-24T02:28:17.253Z,1001.16
2024-03-24T02:30:02.218Z,1001.24
2024-03-24T02:31:47.202Z,1001.22
2024-03-24T02:33:32.271Z,1001.09
2024-03-24T02:35:17.206Z,1001.08
2024-03-24T02:37:02.242Z,1001.17
2024-03-24T02:38:47.230Z,1001.08
2024-03-24T02:40:32.245Z,1001.03
2024-03-24T02:42:17.532Z,1001.03
2024-03-24T02:44:02.234Z,1001.07
2024-03-24T02:45:47.228Z,1001.02
2024-03-24T02:47:32.233Z,1000.93
2024-03-24T02:49:17.227Z,1000.9
2024-03-24T02:51:02.248Z,1001.09
2024-03-24T02:52:47.242Z,1001.03
2024-03-24T02:54:32.224Z,1000.99
2024-03-24T02:56:17.286Z,1000.88
2024-03-24T02:58:02.262Z,1000.93
2024-03-24T02:59:47.236Z,1000.9
2024-03-24T03:01:32.231Z,1000.84
2024-03-24T03:03:17.246Z,1000.81
2024-03-24T03:05:02.537Z,1000.75
2024-03-24T03:06:47.227Z,1000.82
2024-03-24T03:08:32.251Z,1000.79
2024-03-24T03:10:17.271Z,1000.63
2024-03-24T03:12:02.236Z,1000.63
2024-03-24T03:13:47.236Z,1000.75
2024-03-24T03:15:32.264Z,1000.7
2024-03-24T03:17:17.254Z,1000.46
2024-03-24T03:19:02.262Z,1000.59
2024-03-24T03:20:47.231Z,1000.56
2024-03-24T03:22:32.546Z,1000.57
2024-03-24T03:24:17.274Z,1000.59
2024-03-24T03:26:02.276Z,1000.47
2024-03-24T03:27:47.274Z,1000.6
2024-03-24T03:29:32.259Z,1000.52
2024-03-24T03:31:17.287Z,1000.57
2024-03-24T03:33:02.281Z,1000.49
2024-03-24T03:34:47.280Z,1000.54
2024-03-24T03:36:32.276Z,1000.61
2024-03-24T03:38:17.281Z,1000.52
2024-03-24T03:40:02.288Z,1000.52
2024-03-24T03:41:47.278Z,1000.47
2024-03-24T03:43:32.298Z,1000.49
2024-03-24T03:45:17.275Z,1000.43
2024-03-24T03:47:02.312Z,1000.43
2024-03-24T03:48:47.290Z,1000.43
2024-03-24T03:50:32.310Z,1000.32
2024-03-24T03:52:17.298Z,1000.19
2024-03-24T03:54:02.631Z,1000.29
2024-03-24T03:55:47.294Z,1000.38
2024-03-24T03:57:32.297Z,1000.16
2024-03-24T03:59:17.283Z,1000.31
2024-03-24T04:01:02.320Z,1000.37
2024-03-24T04:02:47.307Z,1000.28
2024-03-24T04:04:32.288Z,1000.16
2024-03-24T04:06:17.339Z,1000.23
2024-03-24T04:08:02.315Z,1000.21
2024-03-24T04:09:47.314Z,1000.12
2024-03-24T04:11:32.342Z,1000.06
2024-03-24T04:13:17.370Z,1000.1
2024-03-24T04:15:02.593Z,1000.13
2024-03-24T04:16:47.605Z,1000.12
2024-03-24T04:18:32.343Z,1000.14
2024-03-24T04:20:17.621Z,1000.15
2024-03-24T04:22:02.331Z,1000.01
2024-03-24T04:23:47.354Z,1000.04
2024-03-24T04:25:32.351Z,1000.15
2024-03-24T04:27:17.631Z,1000.03
2024-03-24T04:29:02.353Z,1000.15
2024-03-24T04:30:47.363Z,1000.05
2024-03-24T04:32:32.351Z,1000.05
2024-03-24T04:34:17.407Z,1000.08
2024-03-24T04:36:02.385Z,1000.08
2024-03-24T04:37:47.373Z,1000
2024-03-24T04:39:32.380Z,1000.01
2024-03-24T04:41:17.389Z,999.97
2024-03-24T04:43:02.382Z,1000
2024-03-24T04:44:47.392Z,999.99
2024-03-24T04:46:32.386Z,1000.04
2024-03-24T04:48:17.377Z,1000.04
2024-03-24T04:50:02.386Z,1000.08
2024-03-24T04:51:47.735Z,1000.16
2024-03-24T04:53:32.394Z,1000.13
2024-03-24T04:55:17.418Z,1000.08
2024-03-24T04:57:02.389Z,1000.07
2024-03-24T04:58:47.410Z,1000.07
2024-03-24T05:00:32.408Z,1000.19
2024-03-24T05:02:17.414Z,1000.11
2024-03-24T05:04:02.415Z,1000.12
2024-03-24T05:05:47.403Z,1000.12
2024-03-24T05:07:32.416Z,1000.12
2024-03-24T05:09:17.413Z,1000.12
2024-03-24T05:11:02.412Z,1000.11
2024-03-24T05:12:47.416Z,1000.1
2024-03-24T05:14:32.425Z,999.86
2024-03-24T05:16:17.429Z,999.89
2024-03-24T05:18:02.709Z,999.79
2024-03-24T05:19:47.443Z,999.91
2024-03-24T05:21:32.454Z,999.98
2024-03-24T05:23:17.413Z,1000.05
2024-03-24T05:25:02.447Z,1000.05
2024-03-24T05:26:47.463Z,1000.03
2024-03-24T05:28:35.671Z,999.93
2024-03-24T05:30:17.416Z,999.95
2024-03-24T05:32:02.446Z,999.77
2024-03-24T05:33:47.423Z,999.97
2024-03-24T05:35:32.420Z,999.99
2024-03-24T05:37:17.524Z,999.89
2024-03-24T05:39:02.438Z,999.95
2024-03-24T05:40:47.445Z,999.96
2024-03-24T05:42:32.456Z,999.97
2024-03-24T05:44:17.431Z,1000.09
2024-03-24T05:46:02.456Z,1000.12
2024-03-24T05:47:47.499Z,1000.03
2024-03-24T05:49:32.444Z,999.96
2024-03-24T05:51:17.455Z,999.85
2024-03-24T05:53:02.472Z,999.9
2024-03-24T05:54:47.457Z,1000.01
2024-03-24T05:56:32.450Z,999.96
2024-03-24T05:58:17.480Z,1000.06
2024-03-24T06:00:02.454Z,1000.04
2024-03-24T06:01:47.466Z,1000.12
2024-03-24T06:03:32.510Z,1000.06
2024-03-24T06:05:17.501Z,1000.13
2024-03-24T06:07:02.475Z,1000.16
2024-03-24T06:08:47.468Z,1000.07
2024-03-24T06:10:32.490Z,1000.08
2024-03-24T06:12:17.484Z,1000.77
2024-03-24T06:14:02.488Z,1000.87
2024-03-24T06:15:47.508Z,1000.98
2024-03-24T06:17:32.516Z,1000.77
2024-03-24T06:19:17.527Z,1000.68
2024-03-24T06:21:02.492Z,1000.74
2024-03-24T06:22:47.492Z,1000.73
2024-03-24T06:24:32.532Z,1000.73
2024-03-24T06:26:17.498Z,1000.75
2024-03-24T06:28:02.517Z,1000.68
2024-03-24T06:29:47.508Z,1000.75
2024-03-24T06:31:32.509Z,1000.76
2024-03-24T06:33:17.827Z,1000.77
2024-03-24T06:35:02.507Z,1000.6
2024-03-24T06:36:47.544Z,1000.68
2024-03-24T06:38:32.504Z,1000.83
2024-03-24T06:40:17.583Z,1000.75
2024-03-24T06:42:02.512Z,1000.61
2024-03-24T06:43:47.540Z,1000.51
2024-03-24T06:45:32.509Z,1000.58
2024-03-24T06:47:17.535Z,1000.45
2024-03-24T06:49:02.541Z,1000.62
2024-03-24T06:50:47.530Z,1000.63
2024-03-24T06:52:32.528Z,1000.64
2024-03-24T06:54:17.552Z,1000.69
2024-03-24T06:56:02.555Z,1000.75
2024-03-24T06:57:47.542Z,1000.85
2024-03-24T06:59:32.545Z,1000.6
2024-03-24T07:01:17.530Z,1000.65
2024-03-24T07:03:02.549Z,1000.58
2024-03-24T07:04:47.550Z,1000.61
2024-03-24T07:06:32.542Z,1000.61
2024-03-24T07:08:17.571Z,1000.63
2024-03-24T07:10:04.864Z,1000.69
2024-03-24T07:11:47.588Z,1000.68
2024-03-24T07:13:32.630Z,1000.8
2024-03-24T07:15:17.559Z,1000.73
2024-03-24T07:17:02.576Z,1000.65
2024-03-24T07:18:47.576Z,1000.75
2024-03-24T07:20:32.572Z,1000.77
2024-03-24T07:22:17.591Z,1000.7
2024-03-24T07:24:02.617Z,1000.68
2024-03-24T07:25:47.607Z,1000.66
2024-03-24T07:27:32.595Z,1000.81
2024-03-24T07:29:17.585Z,1000.73
2024-03-24T07:31:02.584Z,1000.66
2024-03-24T07:32:47.606Z,1000.78
2024-03-24T07:34:32.598Z,1000.7
2024-03-24T07:36:17.654Z,1000.74
2024-03-24T07:38:02.582Z,1000.82
2024-03-24T07:39:47.584Z,1000.64
2024-03-24T07:41:32.947Z,1000.64
2024-03-24T07:43:17.610Z,1000.77
2024-03-24T07:45:02.598Z,1000.8
2024-03-24T07:46:47.624Z,1000.82
2024-03-24T07:48:32.590Z,1000.78
2024-03-24T07:50:17.620Z,1000.7
2024-03-24T07:52:02.625Z,1000.78
2024-03-24T07:53:47.597Z,1000.75
2024-03-24T07:55:32.625Z,1000.73
2024-03-24T07:57:17.638Z,1000.77
2024-03-24T07:59:02.642Z,1000.76
2024-03-24T08:00:47.600Z,1000.88
2024-03-24T08:02:32.653Z,1000.82
2024-03-24T08:04:17.685Z,1000.89
2024-03-24T08:06:03.263Z,1000.92
2024-03-24T08:07:47.628Z,1000.95
2024-03-24T08:09:32.647Z,1000.96
2024-03-24T08:11:17.621Z,1001.05
2024-03-24T08:13:02.696Z,1000.93
2024-03-24T08:14:47.667Z,1000.99
2024-03-24T08:16:32.684Z,1001.04
2024-03-24T08:18:17.680Z,1001.1
2024-03-24T08:20:02.658Z,1000.93
2024-03-24T08:21:47.640Z,1000.99
2024-03-24T08:23:32.688Z,1000.93
2024-03-24T08:25:17.661Z,1001.04
2024-03-24T08:27:02.667Z,1001
2024-03-24T08:28:47.670Z,1000.98
2024-03-24T08:30:32.689Z,1000.88
2024-03-24T08:32:17.652Z,1000.96
2024-03-24T08:34:02.689Z,1000.87
2024-03-24T08:35:47.648Z,1000.9
2024-03-24T08:37:32.687Z,1000.91
2024-03-24T08:39:17.676Z,1000.86
2024-03-24T08:41:02.665Z,1000.84
2024-03-24T08:42:47.717Z,1000.9
2024-03-24T08:44:32.720Z,1000.86
2024-03-24T08:46:17.699Z,1000.89
2024-03-24T08:48:02.697Z,1000.86
2024-03-24T08:49:47.688Z,1000.87
2024-03-24T08:51:32.704Z,1000.89
2024-03-24T08:53:17.697Z,1000.87
2024-03-24T08:55:02.719Z,1000.82
2024-03-24T08:56:47.686Z,1000.89
2024-03-24T08:58:32.695Z,1000.85
2024-03-24T09:00:17.708Z,1000.96
2024-03-24T09:02:02.714Z,1000.87
2024-03-24T09:03:47.710Z,1000.82
2024-03-24T09:05:32.722Z,1000.81
2024-03-24T09:07:17.693Z,1000.8
2024-03-24T09:09:02.711Z,1000.78
2024-03-24T09:10:47.720Z,1000.84
2024-03-24T09:12:32.721Z,1000.8
2024-03-24T09:14:17.699Z,1000.85
2024-03-24T09:16:02.736Z,1000.78
2024-03-24T09:17:47.733Z,1000.85
2024-03-24T09:19:32.703Z,1000.89
2024-03-24T09:21:17.747Z,1000.87
2024-03-24T09:23:02.722Z,1000.83
2024-03-24T09:24:47.727Z,1000.93
2024-03-24T09:26:32.760Z,1000.89
2024-03-24T09:28:17.726Z,1000.92
2024-03-24T09:30:02.730Z,1000.82
2024-03-24T09:31:47.792Z,1000.92
2024-03-24T09:33:32.750Z,1000.94
2024-03-24T09:35:17.746Z,1000.87
2024-03-24T09:37:02.768Z,1000.9
2024-03-24T09:38:47.752Z,1000.91
2024-03-24T09:40:32.754Z,1000.79
2024-03-24T09:42:17.737Z,1000.83
2024-03-24T09:44:02.763Z,1000.9
2024-03-24T09:45:47.733Z,1000.89
2024-03-24T09:47:32.737Z,1000.81
2024-03-24T09:49:17.798Z,1000.86
2024-03-24T09:51:02.757Z,1000.77
2024-03-24T09:52:47.747Z,1000.79
2024-03-24T09:54:32.781Z,1000.81
2024-03-24T09:56:17.776Z,1000.65
2024-03-24T09:58:06.764Z,1000.87
2024-03-24T09:59:47.776Z,1000.74
2024-03-24T10:01:32.785Z,1000.78
2024-03-24T10:03:17.772Z,1000.54
2024-03-24T10:05:02.843Z,1000.77
2024-03-24T10:06:47.792Z,1000.73
2024-03-24T10:08:32.791Z,1000.58
2024-03-24T10:10:17.788Z,1000.78
2024-03-24T10:12:02.800Z,1000.75
2024-03-24T10:13:47.820Z,1000.75
2024-03-24T10:15:32.796Z,1000.69
2024-03-24T10:17:18.820Z,1000.68
2024-03-24T10:19:02.807Z,1000.78
2024-03-24T10:20:47.823Z,1000.86
2024-03-24T10:22:32.830Z,1000.67
2024-03-24T10:24:19.250Z,1000.77
2024-03-24T10:26:02.820Z,1000.77
2024-03-24T10:27:47.819Z,1000.63
2024-03-24T10:29:32.819Z,1000.66
2024-03-24T10:31:17.851Z,1000.76
2024-03-24T10:33:02.849Z,1000.62
2024-03-24T10:34:47.821Z,1000.76
2024-03-24T10:36:32.855Z,1000.92
2024-03-24T10:38:17.808Z,1000.76
2024-03-24T10:40:02.855Z,1000.79
2024-03-24T10:41:47.830Z,1000.82
2024-03-24T10:43:32.829Z,1000.86
2024-03-24T10:45:17.875Z,1000.87
2024-03-24T10:47:02.850Z,1000.77
2024-03-24T10:48:47.854Z,1000.74
2024-03-24T10:50:32.838Z,1000.78
2024-03-24T10:52:17.977Z,1000.84
2024-03-24T10:54:02.884Z,1000.62
2024-03-24T10:55:47.848Z,1000.68
2024-03-24T10:57:32.873Z,1000.75
2024-03-24T10:59:17.874Z,1000.82
2024-03-24T11:01:02.864Z,1000.78
2024-03-24T11:02:47.887Z,1000.85
2024-03-24T11:04:32.864Z,1000.83
2024-03-24T11:06:17.879Z,1000.86
2024-03-24T11:08:02.933Z,1000.66
2024-03-24T11:09:47.881Z,1000.76
2024-03-24T11:11:32.889Z,1000.8
2024-03-24T11:13:17.893Z,1000.82
2024-03-24T11:15:02.894Z,1000.84
2024-03-24T11:16:47.914Z,1001.09
2024-03-24T11:18:32.880Z,1001.11
2024-03-24T11:20:17.903Z,1001.14
2024-03-24T11:22:02.916Z,1001.17
2024-03-24T11:23:47.907Z,1001.11
2024-03-24T11:25:32.914Z,1001.15
2024-03-24T11:27:17.889Z,1001.26
2024-03-24T11:29:02.925Z,1001.19
2024-03-24T11:30:47.903Z,1001.2
2024-03-24T11:32:32.898Z,1001.25
2024-03-24T11:34:17.927Z,1001.25
2024-03-24T11:36:02.895Z,1001.37
2024-03-24T11:37:47.894Z,1001.37
2024-03-24T11:39:32.950Z,1001.36
2024-03-24T11:41:17.918Z,1001.29
2024-03-24T11:43:02.908Z,1001.37
2024-03-24T11:44:47.931Z,1001.38
2024-03-24T11:46:32.941Z,1001.31
2024-03-24T11:48:17.935Z,1001.33
2024-03-24T11:50:02.925Z,1001.33
2024-03-24T11:51:47.939Z,1001.39
2024-03-24T11:53:32.950Z,1001.27
2024-03-24T11:55:17.976Z,1001.29
2024-03-24T11:57:02.931Z,1001.37
2024-03-24T11:58:47.922Z,1001.28
2024-03-24T12:00:32.977Z,1001.27
2024-03-24T12:02:17.960Z,1001.24
2024-03-24T12:04:02.945Z,1001.39
2024-03-24T12:05:47.937Z,1001.31
2024-03-24T12:07:32.974Z,1001.39
2024-03-24T12:09:17.958Z,1001.37
2024-03-24T12:11:02.964Z,1001.42
2024-03-24T12:12:48.020Z,1001.38
2024-03-24T12:14:32.972Z,1001.39
2024-03-24T12:16:17.937Z,1001.31
2024-03-24T12:18:02.944Z,1001.26
2024-03-24T12:19:47.966Z,1001.36
2024-03-24T12:21:32.954Z,1001.36
2024-03-24T12:23:17.986Z,1001.31
2024-03-24T12:25:02.971Z,1001.29
2024-03-24T12:26:47.977Z,1001.22
2024-03-24T12:28:33.008Z,1001.26
2024-03-24T12:30:17.967Z,1001.26
2024-03-24T12:32:02.976Z,1001.17
2024-03-24T12:33:47.953Z,1001.24
2024-03-24T12:35:32.977Z,1001.03
2024-03-24T12:37:17.988Z,1001.09
2024-03-24T12:39:02.987Z,1001.19
2024-03-24T12:40:47.977Z,1001.14
2024-03-24T12:42:33.022Z,1001.35
2024-03-24T12:44:18.061Z,1001.2
2024-03-24T12:46:03.320Z,1001.34
2024-03-24T12:47:47.983Z,1001.33
2024-03-24T12:49:50.420Z,1001.32
2024-03-24T12:51:17.997Z,1001.29
2024-03-24T12:53:03.254Z,1001.24
2024-03-24T12:54:48.006Z,1001.38
2024-03-24T12:56:32.996Z,1001.32
2024-03-24T12:58:18.010Z,1001.41
2024-03-24T13:00:03.010Z,1001.32
2024-03-24T13:01:47.982Z,1001.29
2024-03-24T13:03:33.005Z,1001.25
2024-03-24T13:05:18.011Z,1001.33
2024-03-24T13:07:03.001Z,1001.3
2024-03-24T13:08:48.005Z,1001.16
2024-03-24T13:10:33.358Z,1001.11
2024-03-24T13:12:17.998Z,1001.29
2024-03-24T13:14:03.025Z,1001.07
2024-03-24T13:15:48.014Z,1001.3
2024-03-24T13:17:33.011Z,1001.1
2024-03-24T13:19:18.026Z,1001.29
2024-03-24T13:21:03.033Z,1001.21
2024-03-24T13:22:48.014Z,1001.15
2024-03-24T13:24:33.003Z,1001.24
2024-03-24T13:26:18.039Z,1001.21
2024-03-24T13:28:03.059Z,1001.16
2024-03-24T13:29:48.051Z,1001.14
2024-03-24T13:31:33.088Z,1001.21
2024-03-24T13:33:18.044Z,1001.24
2024-03-24T13:35:03.062Z,1001.21
2024-03-24T13:36:48.049Z,1001.1
2024-03-24T13:38:33.071Z,1001.16
2024-03-24T13:40:18.048Z,1001.28
2024-03-24T13:42:03.035Z,1001.27
2024-03-24T13:43:48.062Z,1001.35
2024-03-24T13:45:33.070Z,1001.36
2024-03-24T13:47:18.105Z,1001.33
2024-03-24T13:49:03.080Z,1001.33
2024-03-24T13:50:48.083Z,1001.35
2024-03-24T13:52:33.088Z,1001.29
2024-03-24T13:54:18.413Z,1001.4
2024-03-24T13:56:03.354Z,1001.27
2024-03-24T13:57:48.107Z,1001.4
2024-03-24T13:59:33.094Z,1001.49
2024-03-24T14:01:18.096Z,1001.39
2024-03-24T14:03:03.083Z,1001.36
2024-03-24T14:04:48.107Z,1001.45
2024-03-24T14:06:33.091Z,1001.44
2024-03-24T14:08:18.098Z,1001.33
2024-03-24T14:10:03.122Z,1001.48
2024-03-24T14:11:48.148Z,1001.41
2024-03-24T14:13:33.140Z,1001.53
2024-03-24T14:15:18.124Z,1001.44
2024-03-24T14:17:03.117Z,1001.5
2024-03-24T14:18:48.099Z,1001.5
2024-03-24T14:20:33.125Z,1001.35
2024-03-24T14:22:18.119Z,1001.34
2024-03-24T14:24:03.130Z,1001.3
2024-03-24T14:25:48.125Z,1001.32
2024-03-24T14:27:33.124Z,1001.32
2024-03-24T14:29:18.163Z,1001.39
2024-03-24T14:31:03.148Z,1001.22
2024-03-24T14:32:48.159Z,1001.37
2024-03-24T14:34:33.130Z,1001.27
2024-03-24T14:36:18.135Z,1001.46
2024-03-24T14:38:03.155Z,1001.36
2024-03-24T14:39:48.143Z,1001.29
2024-03-24T14:41:33.142Z,1001.47
2024-03-24T14:43:18.157Z,1001.42
2024-03-24T14:45:03.154Z,1001.45
2024-03-24T14:46:48.163Z,1001.46
2024-03-24T14:48:33.169Z,1001.34
2024-03-24T14:50:18.478Z,1001.37
2024-03-24T14:52:03.163Z,1001.5
2024-03-24T14:53:48.474Z,1001.5
2024-03-24T14:55:33.167Z,1001.46
2024-03-24T14:57:18.166Z,1001.4
2024-03-24T14:59:03.189Z,1001.5
2024-03-24T15:00:48.495Z,1001.41
2024-03-24T15:02:33.173Z,1001.44
2024-03-24T15:04:18.183Z,1001.34
2024-03-24T15:06:03.201Z,1001.34
2024-03-24T15:07:48.196Z,1001.39
2024-03-24T15:09:33.185Z,1001.32
2024-03-24T15:11:18.184Z,1001.32
2024-03-24T15:13:03.194Z,1001.61
2024-03-24T15:14:48.227Z,1001.29
2024-03-24T15:16:33.193Z,1001.44
2024-03-24T15:18:18.219Z,1001.41
2024-03-24T15:20:03.247Z,1001.3
2024-03-24T15:21:48.193Z,1001.25
2024-03-24T15:23:33.219Z,1001.36
2024-03-24T15:25:18.246Z,1001.44
2024-03-24T15:27:03.263Z,1001.34
2024-03-24T15:28:48.253Z,1001.43
2024-03-24T15:30:33.223Z,1001.57
2024-03-24T15:32:18.243Z,1001.6
2024-03-24T15:34:03.856Z,1001.56
2024-03-24T15:35:48.248Z,1001.65
2024-03-24T15:37:33.600Z,1001.59
2024-03-24T15:39:18.530Z,1001.68
2024-03-24T15:41:03.233Z,1001.56
2024-03-24T15:42:48.266Z,1001.53
2024-03-24T15:44:33.235Z,1001.6
2024-03-24T15:46:18.235Z,1001.69
2024-03-24T15:48:03.288Z,1001.68
2024-03-24T15:49:48.271Z,1001.63
2024-03-24T15:51:33.265Z,1001.62
2024-03-24T15:53:18.239Z,1001.66
2024-03-24T15:55:03.254Z,1001.6
2024-03-24T15:56:48.268Z,1001.66
2024-03-24T15:58:33.245Z,1001.69
2024-03-24T16:00:18.573Z,1001.67
2024-03-24T16:02:03.254Z,1001.66
2024-03-24T16:03:48.258Z,1001.68
2024-03-24T16:05:33.275Z,1001.62
2024-03-24T16:07:18.275Z,1001.83
2024-03-24T16:09:03.259Z,1001.83
2024-03-24T16:10:48.273Z,1001.79
2024-03-24T16:12:33.267Z,1001.8
2024-03-24T16:14:18.281Z,1001.81
2024-03-24T16:16:03.287Z,1001.97
2024-03-24T16:17:48.275Z,1001.7
2024-03-24T16:19:33.303Z,1001.85
2024-03-24T16:21:18.358Z,1001.84
2024-03-24T16:23:03.298Z,1001.78
2024-03-24T16:24:48.279Z,1001.78
2024-03-24T16:26:33.299Z,1001.82
2024-03-24T16:28:18.279Z,1001.88
2024-03-24T16:30:03.291Z,1001.93
2024-03-24T16:31:48.301Z,1001.85
2024-03-24T16:33:33.312Z,1002
2024-03-24T16:35:18.293Z,1001.99
2024-03-24T16:37:03.328Z,1001.99
2024-03-24T16:38:48.311Z,1002.05
2024-03-24T16:40:33.281Z,1002.03
2024-03-24T16:42:18.321Z,1001.94
2024-03-24T16:44:03.326Z,1002.05
2024-03-24T16:45:48.325Z,1002.07
2024-03-24T16:47:33.328Z,1002.07
2024-03-24T16:49:18.321Z,1002.02
2024-03-24T16:51:03.347Z,1002.01
2024-03-24T16:52:48.320Z,1002.09
2024-03-24T16:54:33.999Z,1002.2
2024-03-24T16:56:18.383Z,1002.23
2024-03-24T16:58:03.348Z,1002.17
2024-03-24T16:59:48.353Z,1002.11
2024-03-24T17:01:33.342Z,1002.18
2024-03-24T17:03:18.323Z,1002.27
2024-03-24T17:05:03.386Z,1002.21
2024-03-24T17:06:48.363Z,1002.29
2024-03-24T17:08:33.351Z,1002.28
2024-03-24T17:10:18.372Z,1002.36
2024-03-24T17:12:03.383Z,1002.39
2024-03-24T17:13:48.349Z,1002.34
2024-03-24T17:15:33.374Z,1002.37
2024-03-24T17:17:18.430Z,1002.36
2024-03-24T17:19:03.355Z,1002.42
2024-03-24T17:20:48.359Z,1002.38
2024-03-24T17:22:33.425Z,1002.32
2024-03-24T17:24:18.358Z,1002.41
2024-03-24T17:26:03.459Z,1002.5
2024-03-24T17:27:48.375Z,1002.55
2024-03-24T17:29:33.424Z,1002.47
2024-03-24T17:31:18.383Z,1002.55
2024-03-24T17:33:03.358Z,1002.64
2024-03-24T17:34:48.378Z,1002.55
2024-03-24T17:36:33.402Z,1002.58
2024-03-24T17:38:18.377Z,1002.55
2024-03-24T17:40:03.385Z,1002.58
2024-03-24T17:41:48.424Z,1002.52
2024-03-24T17:43:33.444Z,1002.44
2024-03-24T17:45:18.449Z,1002.58
2024-03-24T17:47:03.396Z,1002.57
2024-03-24T17:48:48.416Z,1002.55
2024-03-24T17:50:33.419Z,1002.57
2024-03-24T17:52:18.427Z,1002.65
2024-03-24T17:54:03.423Z,1002.54
2024-03-24T17:55:48.444Z,1002.68
2024-03-24T17:57:33.425Z,1002.64
2024-03-24T17:59:18.394Z,1002.55
2024-03-24T18:01:03.456Z,1002.68
2024-03-24T18:02:48.425Z,1002.61
2024-03-24T18:04:33.426Z,1002.67
2024-03-24T18:06:18.434Z,1002.71
2024-03-24T18:08:03.434Z,1002.67
2024-03-24T18:09:48.435Z,1002.87
2024-03-24T18:11:33.434Z,1002.91
2024-03-24T18:13:18.454Z,1002.9
2024-03-24T18:15:03.422Z,1003.01
2024-03-24T18:16:48.414Z,1002.94
2024-03-24T18:18:33.460Z,1002.97
2024-03-24T18:20:18.439Z,1002.92
2024-03-24T18:22:03.437Z,1002.98
2024-03-24T18:23:48.456Z,1003.03
2024-03-24T18:25:33.456Z,1002.91
2024-03-24T18:27:18.465Z,1003
2024-03-24T18:29:03.486Z,1003.08
2024-03-24T18:30:48.443Z,1003.03
2024-03-24T18:32:33.451Z,1003.03
2024-03-24T18:34:21.006Z,1003.12
2024-03-24T18:36:03.453Z,1003.06
2024-03-24T18:37:48.468Z,1003.04
2024-03-24T18:39:33.474Z,1003.14
2024-03-24T18:41:18.471Z,1003.1
2024-03-24T18:43:03.465Z,1003.11
2024-03-24T18:44:48.484Z,1003.18
2024-03-24T18:46:33.497Z,1003.15
2024-03-24T18:48:18.461Z,1003.08
2024-03-24T18:50:03.491Z,1003.19
2024-03-24T18:51:48.464Z,1003.14
2024-03-24T18:53:33.464Z,1003.15
2024-03-24T18:55:18.482Z,1003.23
2024-03-24T18:57:03.471Z,1003.23
2024-03-24T18:58:48.466Z,1003.25
2024-03-24T19:00:33.521Z,1003.23
2024-03-24T19:02:18.472Z,1003.33
2024-03-24T19:04:03.479Z,1003.35
2024-03-24T19:05:48.499Z,1003.33
2024-03-24T19:07:33.483Z,1003.48
2024-03-24T19:09:18.473Z,1003.52
2024-03-24T19:11:03.523Z,1003.45
2024-03-24T19:12:48.501Z,1003.65
2024-03-24T19:14:33.495Z,1003.59
2024-03-24T19:16:18.556Z,1003.56
2024-03-24T19:18:03.544Z,1003.64
2024-03-24T19:19:48.514Z,1003.57
2024-03-24T19:21:33.524Z,1003.57
2024-03-24T19:23:18.503Z,1003.6
2024-03-24T19:25:03.502Z,1003.68
2024-03-24T19:26:48.921Z,1003.58
2024-03-24T19:28:33.548Z,1003.6
2024-03-24T19:30:18.508Z,1003.71
2024-03-24T19:32:03.544Z,1003.65
2024-03-24T19:33:48.543Z,1003.65
2024-03-24T19:35:33.514Z,1003.69
2024-03-24T19:37:18.502Z,1003.64
2024-03-24T19:39:03.573Z,1003.58
2024-03-24T19:40:48.531Z,1003.62
2024-03-24T19:42:33.542Z,1003.64
2024-03-24T19:44:18.556Z,1003.61
2024-03-24T19:46:03.546Z,1003.71
2024-03-24T19:47:48.571Z,1003.67
2024-03-24T19:49:33.574Z,1003.69
2024-03-24T19:51:18.548Z,1003.68
2024-03-24T19:53:03.574Z,1003.7
2024-03-24T19:54:48.544Z,1003.71
2024-03-24T19:56:33.590Z,1003.79
2024-03-24T19:58:18.545Z,1003.89
2024-03-24T20:00:03.575Z,1003.76
2024-03-24T20:01:48.590Z,1003.78
2024-03-24T20:03:33.599Z,1003.81
2024-03-24T20:05:18.551Z,1003.82
2024-03-24T20:07:03.567Z,1003.95
2024-03-24T20:08:48.573Z,1003.85
2024-03-24T20:10:33.555Z,1003.89
2024-03-24T20:12:18.589Z,1003.86
2024-03-24T20:14:03.551Z,1003.82
2024-03-24T20:15:48.578Z,1003.88
2024-03-24T20:17:33.578Z,1003.85
2024-03-24T20:19:21.024Z,1003.91
2024-03-24T20:21:03.572Z,1003.98
2024-03-24T20:22:48.588Z,1003.96
2024-03-24T20:24:33.593Z,1003.97
2024-03-24T20:26:18.582Z,1003.93
2024-03-24T20:28:03.597Z,1003.99
2024-03-24T20:29:48.944Z,1003.92
2024-03-24T20:31:33.597Z,1004.04
2024-03-24T20:33:18.596Z,1003.99
2024-03-24T20:35:03.630Z,1004.03
2024-03-24T20:36:48.595Z,1003.98
2024-03-24T20:38:33.603Z,1004.02
2024-03-24T20:40:18.619Z,1003.99
2024-03-24T20:42:03.638Z,1004.05
2024-03-24T20:43:48.659Z,1004.04
2024-03-24T20:45:33.616Z,1004.07
2024-03-24T20:47:18.651Z,1004.2
2024-03-24T20:49:03.634Z,1004.1
2024-03-24T20:50:48.634Z,1004.07
2024-03-24T20:52:33.607Z,1004.12
2024-03-24T20:54:18.633Z,1004.08
2024-03-24T20:56:03.611Z,1004.15
2024-03-24T20:57:48.654Z,1004.17
2024-03-24T20:59:33.635Z,1004.14
2024-03-24T21:01:18.620Z,1004.2
2024-03-24T21:03:03.643Z,1004.21
2024-03-24T21:04:48.674Z,1004.15
2024-03-24T21:06:33.682Z,1004.15
2024-03-24T21:08:18.637Z,1004.16
2024-03-24T21:10:03.650Z,1004.15
2024-03-24T21:11:48.660Z,1004.21
2024-03-24T21:13:33.647Z,1004.21
2024-03-24T21:15:18.644Z,1004.25